Lokaal Brand Risico
CBI


Neerslagradar Meer informatie rain snow radar


Onweersbuien Meer informatie Boltek Parkstad!


24/7 Weercamera Meer informatie Webcam







Het weer levert geen direct gevaar op in Parkstad (045)    Er zijn geen waarschuwingen afgegeven voor Parkstad (045)

METAR rapporten vliegvelden

   
EHBK - Beek Nederland
Gewijzigd: 20-01-2018 13:25
Wat regen mogelijk, Grotendeels bewolkt  
Wat regen mogelijk, Grotendeels bewolkt  
   Wind: Zuiden 11.1 km/h
Wind: Zuiden 11.1 km/h
Temperatuur: 2°C
Voelt als: -1°C
Dauwpunt: 1°C
Vochtigheid: 93%
Barometer: 1002 hPa
Satelliet beelden: Grotendeels bewolkt
Zicht: 6 km
Bewolking: Licht bewolkt 183 m,
Gedeeltelijk bewolkt 244 m,
Grotendeels bewolkt 427 m
EHBK 201225Z AUTO 17006KT 140V210 6000 -RA FEW006 SCT008 BKN014 02/01 Q1002 NOSIG
EHBK - Maastricht Nederland
Gewijzigd: 20-01-2018 13:25
Wat regen mogelijk, Grotendeels bewolkt  
Wat regen mogelijk, Grotendeels bewolkt  
   Wind: Zuiden 11.1 km/h
Wind: Zuiden 11.1 km/h
Temperatuur: 2°C
Voelt als: -1°C
Dauwpunt: 1°C
Vochtigheid: 93%
Barometer: 1002 hPa
Satelliet beelden: Grotendeels bewolkt
Zicht: 6 km
Bewolking: Licht bewolkt 183 m,
Gedeeltelijk bewolkt 244 m,
Grotendeels bewolkt 427 m
EHBK 201225Z AUTO 17006KT 140V210 6000 -RA FEW006 SCT008 BKN014 02/01 Q1002 NOSIG
EBLG - Liège België
Gewijzigd: 20-01-2018 13:20
Wat regen mogelijk, Sneeuw, Grotendeels bewolkt  
Wat regen mogelijk, Sneeuw, Grotendeels bewolkt  
   Wind: ZZO 13 km/h
Wind: ZZO 13 km/h
Temperatuur: 1°C
Voelt als: -3°C
Dauwpunt: 1°C
Vochtigheid: 100%
Barometer: 1001 hPa
Satelliet beelden: Grotendeels bewolkt
Zicht: 5 km
Bewolking: Grotendeels bewolkt 183 m
EBLG 201220Z 15007KT 120V180 5000 -RASN BKN006 01/01 Q1001 TEMPO 3000 RADZ RASN BKN005
EDDK - Köln/Bonn Duitsland
Gewijzigd: 20-01-2018 13:20
Wat regen mogelijk, Grotendeels bewolkt  
Wat regen mogelijk, Grotendeels bewolkt  
   Wind: ZZO 9.3 km/h
Wind: ZZO 9.3 km/h
Temperatuur: 4°C
Voelt als: 2°C
Dauwpunt: 2°C
Vochtigheid: 87%
Barometer: 1003 hPa
Satelliet beelden: Grotendeels bewolkt
Zicht: meer dan 10 km
Bewolking: Licht bewolkt 366 m,
Grotendeels bewolkt 488 m
EDDK 201220Z 16005KT 130V190 9999 -RA FEW012 BKN016 04/02 Q1003 NOSIG
EDDL - Düsseldorf Duitsland
Gewijzigd: 20-01-2018 13:20
Wat regen mogelijk, Bewolking  
Wat regen mogelijk, Bewolking  
   Wind: Zuiden 18.5 km/h
Wind: Zuiden 18.5 km/h
Temperatuur: 3°C
Voelt als: -1°C
Dauwpunt: 2°C
Vochtigheid: 93%
Barometer: 1002 hPa
Satelliet beelden: Bewolking
Zicht: meer dan 10 km
Bewolking: Gedeeltelijk bewolkt 457 m,
Bewolking 610 m
EDDL 201220Z 17010KT 9999 -RA SCT015 OVC020 03/02 Q1002 NOSIG
EHEH - Eindhoven Nederland
Gewijzigd: 20-01-2018 13:36
Wat regen mogelijk, Motregen, Grotendeels bewolkt  
Wat regen mogelijk, Motregen, Grotendeels bewolkt  
   Wind: Zuiden 7.4 km/h
Wind: Zuiden 7.4 km/h
Temperatuur: 3°C
Voelt als: 1°C
Dauwpunt: 3°C
Vochtigheid: 100%
Barometer: 1001 hPa
Satelliet beelden: Grotendeels bewolkt
Zicht: meer dan 10 km
Bewolking: Licht bewolkt 213 m,
Gedeeltelijk bewolkt 244 m,
Grotendeels bewolkt 884 m
EHEH 201236Z AUTO 18004KT 140V220 9999 -RADZ FEW007 SCT008 BKN029 03/03 Q1001 GRN 18005KT 7000 -RADZ SCT010 OVC025 TEMPO BKN007 OVC010
ELLX - Luxemburg Luxemburg
Gewijzigd: 20-01-2018 13:20
Sneeuw, Neerslag, Grotendeels bewolkt  
Sneeuw, Neerslag, Grotendeels bewolkt  
   Wind: Zuiden 16.7 km/h
Wind: Zuiden 16.7 km/h
Temperatuur: 1°C
Voelt als: -3°C
Dauwpunt: 1°C
Vochtigheid: 100%
Barometer: 1001 hPa
Satelliet beelden: Grotendeels bewolkt
Zicht: 3 km
Bewolking: Gedeeltelijk bewolkt 31 m,
Grotendeels bewolkt 91 m
ELLX 201220Z 17009KT 3300 SNRA SCT001 BKN003 01/01 Q1001 NOSIG
EGLL - London England
Gewijzigd: 20-01-2018 13:20
Wat regen mogelijk, Motregen, Grotendeels bewolkt  
Wat regen mogelijk, Motregen, Grotendeels bewolkt  
   Wind: Oosten 13 km/h
Wind: Oosten 13 km/h
Temperatuur: 4°C
Voelt als: 1°C
Dauwpunt: 3°C
Vochtigheid: 93%
Barometer: 999 hPa
Satelliet beelden: Grotendeels bewolkt
Zicht: 4 km
Bewolking: Gedeeltelijk bewolkt 152 m,
Grotendeels bewolkt 335 m
EGLL 201220Z 10007KT 3500 -RADZ SCT005 BKN011 04/03 Q0999
EBAW - Antwerpen België
Gewijzigd: 20-01-2018 13:20
Wat regen mogelijk, Grotendeels bewolkt  
Wat regen mogelijk, Grotendeels bewolkt  
   Wind: ZZO 7.4 km/h
Wind: ZZO 7.4 km/h
Temperatuur: 4°C
Voelt als: 2°C
Dauwpunt: 2°C
Vochtigheid: 87%
Barometer: 1001 hPa
Satelliet beelden: Grotendeels bewolkt
Zicht: 8 km
Bewolking: Licht bewolkt 183 m,
Gedeeltelijk bewolkt 244 m,
Grotendeels bewolkt 335 m
EBAW 201220Z 15004KT 8000 -RA FEW006 SCT008 BKN011 04/02 Q1001 NOSIG
EBOS - Oostende België
Gewijzigd: 20-01-2018 13:20
Wat regen mogelijk, Grotendeels bewolkt  
Wat regen mogelijk, Grotendeels bewolkt  
   Wind: OZO 9.3 km/h
Wind: OZO 9.3 km/h
Temperatuur: 4°C
Voelt als: 2°C
Dauwpunt: 2°C
Vochtigheid: 87%
Barometer: 1000 hPa
Satelliet beelden: Grotendeels bewolkt
Zicht: 8 km
Bewolking: Licht bewolkt 244 m,
Grotendeels bewolkt 396 m
EBOS 201220Z 12005KT 8000 -RA FEW008 BKN013 04/02 Q1000 TEMPO 4000 -RADZ BKN008
LEAL - La Nucia Spanje
Gewijzigd: 20-01-2018 13:30
Helder  
Helder  
   Wind: WNW 25.9 km/h
Wind: WNW 25.9 km/h
Temperatuur: 19°C
Dauwpunt: 4°C
Vochtigheid: 37%
Barometer: 1024 hPa
Zicht: meer dan 10 km
Bewolking: Helder
LEAL 201230Z 29014KT 260V320 CAVOK 19/04 Q1024 NOSIG
TNCA - Oranjestad Aruba
Gewijzigd: 20-01-2018 13:00
Licht bewolkt  
Licht bewolkt  
   Wind: Oosten 24.1 km/h
Wind: Oosten 24.1 km/h
Temperatuur: 27°C
Gevoelstemperatuur: 29°C
Dauwpunt: 23°C
Vochtigheid: 79%
Barometer: 1013 hPa
Satelliet beelden: Licht bewolkt
Zicht: meer dan 10 km
Bewolking: Licht bewolkt 549 m
TNCA 201200Z 10013KT 9999 FEW018 27/23 Q1013 NOSIG
TNCC - Willemstad Curacao
Gewijzigd: 20-01-2018 13:00
Licht bewolkt  
Licht bewolkt  
   Wind: OZO 25.9 km/h
Wind: OZO 25.9 km/h
Temperatuur: 27°C
Gevoelstemperatuur: 29°C
Dauwpunt: 23°C
Vochtigheid: 79%
Barometer: 1015 hPa
Satelliet beelden: Licht bewolkt
Zicht: meer dan 10 km
Bewolking: Licht bewolkt 549 m
TNCC 201200Z 11014KT 9999 FEW018 27/23 Q1015 NOSIG
MTPP - Port au Prince Haitië
Gewijzigd: 20-01-2018 13:00
Gedeeltelijk bewolkt  
Gedeeltelijk bewolkt  
   Wind: Oosten 13 km/h
Wind: Oosten 13 km/h
Temperatuur: 23°C
Dauwpunt: 21°C
Vochtigheid: 89%
Barometer: 1015 hPa
Satelliet beelden: Gedeeltelijk bewolkt
Zicht: 9 km
Bewolking: Licht bewolkt 610 m,
Gedeeltelijk bewolkt 6706 m
MTPP 201200Z 09007KT 9000 FEW020 SCT220 23/21 Q1015 A2999
ENVA - Trondheim Noorwegen
Gewijzigd: 20-01-2018 13:20
Helder  
Helder  
   Wind: Oosten 7.4 km/h
Wind: Oosten 7.4 km/h
Temperatuur: 0°C
Voelt als: -3°C
Dauwpunt: -8°C
Vochtigheid: 55%
Barometer: 1002 hPa
Zicht: meer dan 10 km
Bewolking: Helder
ENVA 201220Z 08004KT 060V130 CAVOK M00/M08 Q1002 NOSIG RMK WIND 670FT 16013KT
ENBO - Bodø Noorwegen
Gewijzigd: 20-01-2018 13:20
Helder  
Helder  
   Wind: ONO 42.6 km/h
Wind: ONO 42.6 km/h
Temperatuur: -5°C
Voelt als: -14°C
Dauwpunt: -13°C
Vochtigheid: 54%
Barometer: 1006 hPa
Zicht: meer dan 10 km
Bewolking: Helder
ENBO 201220Z 07023KT CAVOK M05/M13 Q1006 NOSIG
ETNG - Geilenkirchen Duitsland
Gewijzigd: 19-01-2018 17:50
Verouderd
Licht bewolkt  
Licht bewolkt  
   Wind: ZW 13 km/h
Wind: ZW 13 km/h
Temperatuur: 4°C
Voelt als: 1°C
Dauwpunt: 0°C
Vochtigheid: 75%
Barometer: 1009 hPa
Satelliet beelden: Licht bewolkt
Zicht: meer dan 10 km
Bewolking: Licht bewolkt 610 m
ETNG 191650Z 23007KT 9999 FEW020 04/00 Q1009 NOSIG
 

Script ontwikkeld door  Saratoga-weather.org Aangepast voor de template door  Weerstation Leuven

U vindt ons ook hier:

Het Weer Aktueel

UK Metoffice

European Weather Network

WeatherCloud

Weather Underground

Benelux Weer Netwerk

AWEKAS

WeatherlinkIP

Citizen Weather Observer Program (CWOP)

HAMweather, WeatherForYou, PWS Weather

Apparatuur in gebruik:

Hardwareleverancier
Weerhuisje

Weerstation
Vantage Pro2+ +UV

Weercomputer's
alix3d2 & wl330n

Weerprogramma's
Smartbedded

Satelliet NOAA's
WRX137 & KX137

Satelliet Eumetcast
Ayecka SR1 & Triax

Bliksemdetectie
Boltek StormTracker

Webleverancier
VPS Linux V80

Weerhuisje

Vantage Pro2+ +UV

alix3d2 & wl330n

Smartbedded

WRX137 & KX137

Ayecka SR1 & Triax

Boltek StormTracker

VPS Linux V80